AirNav   ProFlight Series 2 Aviation Headset
 
 1157 users online  

59MO Hermann Area Hospital Heliport
Hermann, Missouri, USA

GOING TO HERMANN?


FAA INFORMATION EFFECTIVE 13 AUGUST 2020

Location

FAA Identifier: 59MO
Lat/Long: 38-41-35.7100N 091-27-01.1300W
38-41.595167N 091-27.018833W
38.6932528,-91.4503139
(estimated)
Elevation: 610 ft. / 186 m (estimated)
Variation: 03E (1985)
Time zone: UTC -5 (UTC -6 during Standard Time)
Zip code: 65041

Heliport Operations

Heliport use: Private use, MEDICAL.
Activation date: 11/1974
Control tower: no
ARTCC: KANSAS CITY CENTER
FSS: SAINT LOUIS FLIGHT SERVICE STATION
Attendance: CONTINUOUS
Wind indicator: yes
Segmented circle: no
Lights: SS-SR

Nearby radio navigation aids

VOR radial/distance  VOR name  Freq  Var
FTZr265/22.4FORISTELL VORTAC110.8005E
VIHr014/34.5VICHY VOR/DME117.7006E
COUr101/36.6COLUMBIA VOR/DME110.2000E

Heliport Services

Airframe service: NONE
Powerplant service: NONE

Runway Information

Helipad H1

Dimensions: 40 x 40 ft. / 12 x 12 m
Surface: asphalt/concrete
Runway edge lights: FLD
Runway edge markings: RED LANDING PAD W/WHITE CROSS.
Latitude: 38-41.595167N
Longitude: 091-27.018833W
Elevation: 610.0 ft.
Traffic pattern: leftleft

Heliport Ownership and Management from official FAA records

Ownership: Privately-owned
Owner: HERMANN AREA DISTRICT HOSP.
PO BOX 470
HERMANN, MO 65041
Phone 314-486-2191
Manager: DAN MC KINNEY, ADMIN
PO BOX 470
HERMANN, MO 65041
Phone 314-486-2191
ADDITIONAL CONTACT - GREG STEPHAN - MAINTENANCE DIRECTOR 573-486-2191; MAINTENANCE@HADH.ORG

Additional Remarks

A52-H1 30' BLDG SE.
FOR CD CTC MIZZOU APCH AT 417-868-5620/5619.

Instrument Procedures

There are no published instrument procedures at 59MO.

Some nearby airports with instrument procedures:

KFYG - Washington Regional Airport (22 nm E)
KFTT - Elton Hensley Memorial Airport (27 nm W)
KUUV - Sullivan Regional Airport (31 nm SE)
KMYJ - Mexico Memorial Airport (33 nm NW)
KJEF - Jefferson City Memorial Airport (34 nm W)
 
Loc | Ops | Rwys | IFR | FBO | Links
Com | Nav | Svcs | Stats | Notes
Area around 59MO (Hermann Area Hospital Heliport)
 
Road maps at: MapQuest Bing Google
 
Aerial photo
No photo
 
Sectional chart

 
Airport distance calculator
Flying to Hermann Area Hospital Heliport? Find the distance to fly.

From to 59MO

Sunrise and sunset
Times for 14-Aug-2020
 Local
(UTC-5)
 Zulu
(UTC)
Morning civil twilight05:5210:52
Sunrise06:2111:21
Sunset20:0001:00
Evening civil twilight20:2801:28

Current date and time
Zulu (UTC)  14-Aug-2020 22:56:34
Local (UTC-5)  14-Aug-2020 17:56:34
 
METAR
KFYG 
22nm E 
142215Z AUTO 00000KT 10SM SCT036 BKN048 BKN060 29/23 A2992 RMK AO2
KMYJ 
33nm NW 
142235Z AUTO 04005KT 10SM CLR 28/21 A2995 RMK AO2
KJEF 
33nm W 
142153Z 11006KT 10SM CLR 31/20 A2992 RMK AO2 SLP117 T03060200
KCOU 
37nm W 
142154Z 09004KT 10SM CLR 31/21 A2994 RMK AO2 SLP129 T03060211
KVIH 
37nm SW 
142153Z AUTO 10005KT 10SM CLR 29/20 A2996 RMK AO2 SLP132 T02940200
KSUS 
38nm E 
142154Z 05005KT 10SM SCT041 30/21 A2992 RMK AO2 SLP123 T03000211
TAF
KCOU 
37nm W 
141720Z 1418/1518 11007KT P6SM FEW030 FM150900 25003KT 5SM BR SCT200 FM151400 31005KT P6SM SCT030
KSUS 
38nm E 
141720Z 1418/1518 VRB03KT P6SM SCT025 BKN040 FM150100 00000KT P6SM SKC FM150700 00000KT 3SM BR FEW250 FM151000 00000KT 1SM BR FEW200 FM151400 30005KT P6SM SCT250
NOTAMs
Click for the latest NOTAMs
NOTAMs are issued by the DoD/FAA and will open in a separate window not controlled by AirNav.

 

 
 

Would you like to see your business listed on this page?

 If your business provides an interesting product or service to pilots, flight crews, aircraft, or users of the Hermann Area Hospital Heliport, you should consider listing it here.  To start the listing process, click on the button below
 
Add a business
 

Other Pages about Hermann Area Hospital Heliport

Update a link
 
Copyright © AirNav, LLC. All rights reserved. Privacy Policy  Contact